sensor_id;sensor_type;location;lat;lon;timestamp;P1;durP1;ratioP1;P2;durP2;ratioP2
73642;SDS011;61938;48.652;9.292;2022-11-23T00:01:42;11.18;;;4.38;;
73642;SDS011;61938;48.652;9.292;2022-11-23T00:04:09;17.75;;;5.03;;
73642;SDS011;61938;48.652;9.292;2022-11-23T00:06:37;14.13;;;5.60;;
73642;SDS011;61938;48.652;9.292;2022-11-23T00:09:03;12.15;;;5.65;;
73642;SDS011;61938;48.652;9.292;2022-11-23T00:11:28;14.27;;;5.72;;
73642;SDS011;61938;48.652;9.292;2022-11-23T00:13:54;13.52;;;5.45;;
73642;SDS011;61938;48.652;9.292;2022-11-23T00:16:21;14.32;;;6.15;;
73642;SDS011;61938;48.652;9.292;2022-11-23T00:18:50;18.33;;;6.20;;
73642;SDS011;61938;48.652;9.292;2022-11-23T00:21:17;14.98;;;5.78;;
73642;SDS011;61938;48.652;9.292;2022-11-23T00:23:44;13.40;;;5.80;;
73642;SDS011;61938;48.652;9.292;2022-11-23T00:26:10;9.75;;;4.93;;
73642;SDS011;61938;48.652;9.292;2022-11-23T00:28:37;13.40;;;4.78;;
73642;SDS011;61938;48.652;9.292;2022-11-23T00:31:08;12.43;;;5.78;;
73642;SDS011;61938;48.652;9.292;2022-11-23T00:33:35;12.60;;;5.88;;
73642;SDS011;61938;48.652;9.292;2022-11-23T00:36:07;12.35;;;5.90;;
73642;SDS011;61938;48.652;9.292;2022-11-23T00:38:38;14.35;;;6.65;;
73642;SDS011;61938;48.652;9.292;2022-11-23T00:41:05;11.35;;;5.50;;
73642;SDS011;61938;48.652;9.292;2022-11-23T00:43:33;12.98;;;5.57;;
73642;SDS011;61938;48.652;9.292;2022-11-23T00:46:09;13.93;;;6.25;;
73642;SDS011;61938;48.652;9.292;2022-11-23T00:48:47;11.60;;;5.93;;
73642;SDS011;61938;48.652;9.292;2022-11-23T00:51:15;13.13;;;5.93;;
73642;SDS011;61938;48.652;9.292;2022-11-23T00:53:42;9.80;;;5.30;;
73642;SDS011;61938;48.652;9.292;2022-11-23T00:56:08;20.58;;;6.75;;
73642;SDS011;61938;48.652;9.292;2022-11-23T00:58:34;13.15;;;5.05;;
73642;SDS011;61938;48.652;9.292;2022-11-23T01:01:13;14.93;;;4.55;;
73642;SDS011;61938;48.652;9.292;2022-11-23T01:03:40;17.60;;;3.83;;
73642;SDS011;61938;48.652;9.292;2022-11-23T01:06:11;10.07;;;3.25;;
73642;SDS011;61938;48.652;9.292;2022-11-23T01:08:43;15.43;;;2.97;;
73642;SDS011;61938;48.652;9.292;2022-11-23T01:11:16;9.48;;;4.03;;
73642;SDS011;61938;48.652;9.292;2022-11-23T01:13:42;6.88;;;2.97;;
73642;SDS011;61938;48.652;9.292;2022-11-23T01:16:09;8.85;;;2.72;;
73642;SDS011;61938;48.652;9.292;2022-11-23T01:18:39;13.15;;;3.22;;
73642;SDS011;61938;48.652;9.292;2022-11-23T01:21:05;12.18;;;4.10;;
73642;SDS011;61938;48.652;9.292;2022-11-23T01:23:31;14.25;;;4.53;;
73642;SDS011;61938;48.652;9.292;2022-11-23T01:26:02;11.70;;;3.70;;
73642;SDS011;61938;48.652;9.292;2022-11-23T01:28:32;8.90;;;3.65;;
73642;SDS011;61938;48.652;9.292;2022-11-23T01:31:05;20.92;;;5.28;;
73642;SDS011;61938;48.652;9.292;2022-11-23T01:33:35;12.90;;;5.15;;
73642;SDS011;61938;48.652;9.292;2022-11-23T01:36:09;11.35;;;4.10;;
73642;SDS011;61938;48.652;9.292;2022-11-23T01:38:35;14.93;;;3.42;;
73642;SDS011;61938;48.652;9.292;2022-11-23T01:41:02;14.10;;;4.20;;
73642;SDS011;61938;48.652;9.292;2022-11-23T01:43:29;9.60;;;4.05;;
73642;SDS011;61938;48.652;9.292;2022-11-23T01:45:56;8.18;;;4.25;;
73642;SDS011;61938;48.652;9.292;2022-11-23T01:48:27;13.50;;;4.72;;
73642;SDS011;61938;48.652;9.292;2022-11-23T01:51:10;12.57;;;4.82;;
73642;SDS011;61938;48.652;9.292;2022-11-23T01:53:38;16.58;;;5.43;;
73642;SDS011;61938;48.652;9.292;2022-11-23T01:56:06;13.77;;;4.57;;
73642;SDS011;61938;48.652;9.292;2022-11-23T01:58:35;12.93;;;4.55;;
73642;SDS011;61938;48.652;9.292;2022-11-23T02:01:04;16.02;;;5.43;;
73642;SDS011;61938;48.652;9.292;2022-11-23T02:03:30;16.85;;;5.38;;
73642;SDS011;61938;48.652;9.292;2022-11-23T02:05:59;13.85;;;5.10;;
73642;SDS011;61938;48.652;9.292;2022-11-23T02:08:27;17.13;;;5.95;;
73642;SDS011;61938;48.652;9.292;2022-11-23T02:10:54;13.98;;;5.78;;
73642;SDS011;61938;48.652;9.292;2022-11-23T02:13:22;17.75;;;5.28;;
73642;SDS011;61938;48.652;9.292;2022-11-23T02:15:49;12.80;;;4.97;;
73642;SDS011;61938;48.652;9.292;2022-11-23T02:18:18;15.00;;;5.75;;
73642;SDS011;61938;48.652;9.292;2022-11-23T02:20:47;16.52;;;5.40;;
73642;SDS011;61938;48.652;9.292;2022-11-23T02:26:07;15.77;;;5.10;;
73642;SDS011;61938;48.652;9.292;2022-11-23T02:28:46;15.52;;;4.30;;
73642;SDS011;61938;48.652;9.292;2022-11-23T02:31:17;10.27;;;4.72;;
73642;SDS011;61938;48.652;9.292;2022-11-23T02:33:42;11.90;;;4.50;;
73642;SDS011;61938;48.652;9.292;2022-11-23T02:36:54;7.72;;;3.70;;
73642;SDS011;61938;48.652;9.292;2022-11-23T02:38:56;10.43;;;3.63;;
73642;SDS011;61938;48.652;9.292;2022-11-23T02:41:24;16.38;;;4.43;;
73642;SDS011;61938;48.652;9.292;2022-11-23T02:43:50;9.57;;;3.33;;
73642;SDS011;61938;48.652;9.292;2022-11-23T02:46:18;9.48;;;3.72;;
73642;SDS011;61938;48.652;9.292;2022-11-23T02:48:44;12.82;;;3.97;;
73642;SDS011;61938;48.652;9.292;2022-11-23T02:51:09;13.23;;;4.07;;
73642;SDS011;61938;48.652;9.292;2022-11-23T02:53:35;13.27;;;4.22;;
73642;SDS011;61938;48.652;9.292;2022-11-23T02:56:00;9.18;;;3.83;;
73642;SDS011;61938;48.652;9.292;2022-11-23T02:58:26;11.82;;;4.35;;
73642;SDS011;61938;48.652;9.292;2022-11-23T03:00:51;8.63;;;3.92;;
73642;SDS011;61938;48.652;9.292;2022-11-23T03:03:17;12.10;;;3.42;;
73642;SDS011;61938;48.652;9.292;2022-11-23T03:05:42;14.85;;;4.32;;
73642;SDS011;61938;48.652;9.292;2022-11-23T03:08:08;8.45;;;3.70;;
73642;SDS011;61938;48.652;9.292;2022-11-23T03:10:34;17.70;;;4.10;;
73642;SDS011;61938;48.652;9.292;2022-11-23T03:12:59;10.15;;;4.05;;
73642;SDS011;61938;48.652;9.292;2022-11-23T03:15:25;9.70;;;4.40;;
73642;SDS011;61938;48.652;9.292;2022-11-23T03:17:50;8.65;;;3.47;;
73642;SDS011;61938;48.652;9.292;2022-11-23T03:20:16;8.70;;;3.85;;
73642;SDS011;61938;48.652;9.292;2022-11-23T03:22:42;17.25;;;4.65;;
73642;SDS011;61938;48.652;9.292;2022-11-23T03:25:07;12.55;;;3.97;;
73642;SDS011;61938;48.652;9.292;2022-11-23T03:27:33;12.30;;;4.20;;
73642;SDS011;61938;48.652;9.292;2022-11-23T03:29:59;15.68;;;4.03;;
73642;SDS011;61938;48.652;9.292;2022-11-23T03:32:24;7.88;;;3.80;;
73642;SDS011;61938;48.652;9.292;2022-11-23T03:34:50;11.02;;;4.15;;
73642;SDS011;61938;48.652;9.292;2022-11-23T03:37:15;21.35;;;4.68;;
73642;SDS011;61938;48.652;9.292;2022-11-23T03:39:41;7.45;;;3.58;;
73642;SDS011;61938;48.652;9.292;2022-11-23T03:42:06;11.57;;;4.03;;
73642;SDS011;61938;48.652;9.292;2022-11-23T03:44:32;17.20;;;4.13;;
73642;SDS011;61938;48.652;9.292;2022-11-23T03:46:57;11.15;;;4.28;;
73642;SDS011;61938;48.652;9.292;2022-11-23T03:49:23;8.57;;;4.18;;
73642;SDS011;61938;48.652;9.292;2022-11-23T03:51:49;15.50;;;4.18;;
73642;SDS011;61938;48.652;9.292;2022-11-23T03:54:14;10.30;;;4.05;;
73642;SDS011;61938;48.652;9.292;2022-11-23T03:56:40;7.60;;;3.55;;
73642;SDS011;61938;48.652;9.292;2022-11-23T03:59:05;9.52;;;3.92;;
73642;SDS011;61938;48.652;9.292;2022-11-23T04:01:31;8.45;;;4.10;;
73642;SDS011;61938;48.652;9.292;2022-11-23T04:03:56;15.95;;;4.10;;
73642;SDS011;61938;48.652;9.292;2022-11-23T04:06:22;12.48;;;4.05;;
73642;SDS011;61938;48.652;9.292;2022-11-23T04:08:48;8.43;;;3.50;;
73642;SDS011;61938;48.652;9.292;2022-11-23T04:11:13;13.20;;;3.60;;
73642;SDS011;61938;48.652;9.292;2022-11-23T04:13:39;12.32;;;4.18;;
73642;SDS011;61938;48.652;9.292;2022-11-23T04:16:04;14.15;;;3.50;;
73642;SDS011;61938;48.652;9.292;2022-11-23T04:18:31;16.73;;;3.50;;
73642;SDS011;61938;48.652;9.292;2022-11-23T04:20:57;12.38;;;3.30;;
73642;SDS011;61938;48.652;9.292;2022-11-23T04:23:22;10.75;;;3.25;;
73642;SDS011;61938;48.652;9.292;2022-11-23T04:25:48;10.63;;;3.53;;
73642;SDS011;61938;48.652;9.292;2022-11-23T04:28:13;10.38;;;3.75;;
73642;SDS011;61938;48.652;9.292;2022-11-23T04:30:39;8.55;;;4.03;;
73642;SDS011;61938;48.652;9.292;2022-11-23T04:33:05;15.43;;;3.80;;
73642;SDS011;61938;48.652;9.292;2022-11-23T04:35:30;9.75;;;3.75;;
73642;SDS011;61938;48.652;9.292;2022-11-23T04:37:56;9.57;;;3.88;;
73642;SDS011;61938;48.652;9.292;2022-11-23T04:40:21;7.55;;;3.85;;
73642;SDS011;61938;48.652;9.292;2022-11-23T04:42:47;11.02;;;4.10;;
73642;SDS011;61938;48.652;9.292;2022-11-23T04:45:12;12.32;;;3.15;;
73642;SDS011;61938;48.652;9.292;2022-11-23T04:47:38;11.40;;;3.70;;
73642;SDS011;61938;48.652;9.292;2022-11-23T04:50:04;11.60;;;3.78;;
73642;SDS011;61938;48.652;9.292;2022-11-23T04:52:29;12.82;;;3.75;;
73642;SDS011;61938;48.652;9.292;2022-11-23T04:54:55;7.18;;;3.33;;
73642;SDS011;61938;48.652;9.292;2022-11-23T04:57:20;6.47;;;3.13;;
73642;SDS011;61938;48.652;9.292;2022-11-23T04:59:46;6.65;;;3.72;;
73642;SDS011;61938;48.652;9.292;2022-11-23T05:02:11;9.23;;;4.20;;
73642;SDS011;61938;48.652;9.292;2022-11-23T05:04:37;10.52;;;3.35;;
73642;SDS011;61938;48.652;9.292;2022-11-23T05:07:02;13.25;;;3.78;;
73642;SDS011;61938;48.652;9.292;2022-11-23T05:09:28;8.82;;;3.80;;
73642;SDS011;61938;48.652;9.292;2022-11-23T05:11:53;7.40;;;3.72;;
73642;SDS011;61938;48.652;9.292;2022-11-23T05:14:19;14.60;;;4.05;;
73642;SDS011;61938;48.652;9.292;2022-11-23T05:16:44;12.20;;;4.32;;
73642;SDS011;61938;48.652;9.292;2022-11-23T05:19:10;10.05;;;3.80;;
73642;SDS011;61938;48.652;9.292;2022-11-23T05:21:35;9.93;;;4.05;;
73642;SDS011;61938;48.652;9.292;2022-11-23T05:24:01;10.07;;;3.80;;
73642;SDS011;61938;48.652;9.292;2022-11-23T05:26:26;11.13;;;4.13;;
73642;SDS011;61938;48.652;9.292;2022-11-23T05:28:52;11.90;;;4.50;;
73642;SDS011;61938;48.652;9.292;2022-11-23T05:31:17;12.38;;;4.65;;
73642;SDS011;61938;48.652;9.292;2022-11-23T05:33:44;11.63;;;4.40;;
73642;SDS011;61938;48.652;9.292;2022-11-23T05:36:09;9.07;;;4.20;;
73642;SDS011;61938;48.652;9.292;2022-11-23T05:38:37;16.33;;;4.63;;
73642;SDS011;61938;48.652;9.292;2022-11-23T05:41:03;16.05;;;4.30;;
73642;SDS011;61938;48.652;9.292;2022-11-23T05:43:30;12.90;;;4.25;;
73642;SDS011;61938;48.652;9.292;2022-11-23T05:45:57;12.00;;;4.28;;
73642;SDS011;61938;48.652;9.292;2022-11-23T05:48:23;10.95;;;4.80;;
73642;SDS011;61938;48.652;9.292;2022-11-23T05:50:49;15.68;;;5.32;;
73642;SDS011;61938;48.652;9.292;2022-11-23T05:53:15;10.77;;;4.50;;
73642;SDS011;61938;48.652;9.292;2022-11-23T05:55:40;13.43;;;4.93;;
73642;SDS011;61938;48.652;9.292;2022-11-23T05:58:06;9.07;;;3.63;;
73642;SDS011;61938;48.652;9.292;2022-11-23T06:00:31;14.23;;;4.93;;
73642;SDS011;61938;48.652;9.292;2022-11-23T06:02:58;18.38;;;4.78;;
73642;SDS011;61938;48.652;9.292;2022-11-23T06:05:27;11.80;;;3.95;;
73642;SDS011;61938;48.652;9.292;2022-11-23T06:07:53;6.80;;;3.17;;
73642;SDS011;61938;48.652;9.292;2022-11-23T06:10:19;6.45;;;3.45;;
73642;SDS011;61938;48.652;9.292;2022-11-23T06:12:44;9.65;;;3.70;;
73642;SDS011;61938;48.652;9.292;2022-11-23T06:15:10;12.82;;;4.40;;
73642;SDS011;61938;48.652;9.292;2022-11-23T06:17:36;12.10;;;3.88;;
73642;SDS011;61938;48.652;9.292;2022-11-23T06:20:03;15.50;;;3.58;;
73642;SDS011;61938;48.652;9.292;2022-11-23T06:22:30;8.90;;;3.78;;
73642;SDS011;61938;48.652;9.292;2022-11-23T06:24:55;11.05;;;3.78;;
73642;SDS011;61938;48.652;9.292;2022-11-23T06:27:21;5.38;;;3.20;;
73642;SDS011;61938;48.652;9.292;2022-11-23T06:29:46;13.02;;;3.38;;
73642;SDS011;61938;48.652;9.292;2022-11-23T06:32:12;25.35;;;3.30;;
73642;SDS011;61938;48.652;9.292;2022-11-23T06:34:37;5.65;;;3.00;;
73642;SDS011;61938;48.652;9.292;2022-11-23T06:37:03;9.85;;;3.13;;
73642;SDS011;61938;48.652;9.292;2022-11-23T06:39:28;9.10;;;3.30;;
73642;SDS011;61938;48.652;9.292;2022-11-23T06:41:54;8.02;;;3.38;;
73642;SDS011;61938;48.652;9.292;2022-11-23T06:44:19;12.98;;;4.07;;
73642;SDS011;61938;48.652;9.292;2022-11-23T06:46:45;14.85;;;5.45;;
73642;SDS011;61938;48.652;9.292;2022-11-23T06:49:10;38.25;;;14.35;;
73642;SDS011;61938;48.652;9.292;2022-11-23T06:51:36;37.28;;;12.07;;
73642;SDS011;61938;48.652;9.292;2022-11-23T06:54:01;23.25;;;10.75;;
73642;SDS011;61938;48.652;9.292;2022-11-23T06:56:27;32.10;;;11.73;;
73642;SDS011;61938;48.652;9.292;2022-11-23T06:58:55;19.60;;;9.10;;
73642;SDS011;61938;48.652;9.292;2022-11-23T07:01:20;12.23;;;4.97;;
73642;SDS011;61938;48.652;9.292;2022-11-23T07:03:46;14.48;;;5.25;;
73642;SDS011;61938;48.652;9.292;2022-11-23T07:06:11;13.98;;;5.85;;
73642;SDS011;61938;48.652;9.292;2022-11-23T07:08:37;10.73;;;4.63;;
73642;SDS011;61938;48.652;9.292;2022-11-23T07:11:08;9.35;;;4.32;;
73642;SDS011;61938;48.652;9.292;2022-11-23T07:13:35;9.65;;;4.55;;
73642;SDS011;61938;48.652;9.292;2022-11-23T07:16:01;13.95;;;5.20;;
73642;SDS011;61938;48.652;9.292;2022-11-23T07:18:26;16.98;;;4.55;;
73642;SDS011;61938;48.652;9.292;2022-11-23T07:20:53;10.68;;;4.90;;
73642;SDS011;61938;48.652;9.292;2022-11-23T07:23:21;12.68;;;5.22;;
73642;SDS011;61938;48.652;9.292;2022-11-23T07:25:46;12.20;;;4.03;;
73642;SDS011;61938;48.652;9.292;2022-11-23T07:28:12;8.07;;;4.65;;
73642;SDS011;61938;48.652;9.292;2022-11-23T07:30:38;10.20;;;3.95;;
73642;SDS011;61938;48.652;9.292;2022-11-23T07:33:08;16.20;;;3.78;;
73642;SDS011;61938;48.652;9.292;2022-11-23T07:35:35;7.20;;;3.60;;
73642;SDS011;61938;48.652;9.292;2022-11-23T07:38:02;8.20;;;3.75;;
73642;SDS011;61938;48.652;9.292;2022-11-23T07:40:28;9.65;;;4.55;;
73642;SDS011;61938;48.652;9.292;2022-11-23T07:43:00;18.02;;;4.80;;
73642;SDS011;61938;48.652;9.292;2022-11-23T07:45:27;19.10;;;3.72;;
73642;SDS011;61938;48.652;9.292;2022-11-23T07:47:57;11.38;;;4.18;;
73642;SDS011;61938;48.652;9.292;2022-11-23T07:50:26;10.02;;;4.45;;
73642;SDS011;61938;48.652;9.292;2022-11-23T07:52:52;9.27;;;3.63;;
73642;SDS011;61938;48.652;9.292;2022-11-23T07:55:17;14.43;;;4.50;;
73642;SDS011;61938;48.652;9.292;2022-11-23T07:57:43;10.85;;;4.95;;
73642;SDS011;61938;48.652;9.292;2022-11-23T08:00:09;18.83;;;5.65;;
73642;SDS011;61938;48.652;9.292;2022-11-23T08:02:35;10.55;;;4.82;;
73642;SDS011;61938;48.652;9.292;2022-11-23T08:05:00;11.80;;;5.28;;
73642;SDS011;61938;48.652;9.292;2022-11-23T08:07:26;20.70;;;6.05;;
73642;SDS011;61938;48.652;9.292;2022-11-23T08:09:51;15.38;;;5.25;;
73642;SDS011;61938;48.652;9.292;2022-11-23T08:12:17;8.77;;;4.60;;
73642;SDS011;61938;48.652;9.292;2022-11-23T08:14:42;12.65;;;5.28;;
73642;SDS011;61938;48.652;9.292;2022-11-23T08:17:08;15.73;;;5.70;;
73642;SDS011;61938;48.652;9.292;2022-11-23T08:19:34;14.38;;;5.13;;
73642;SDS011;61938;48.652;9.292;2022-11-23T08:21:59;10.27;;;5.10;;
73642;SDS011;61938;48.652;9.292;2022-11-23T08:24:25;10.30;;;4.53;;
73642;SDS011;61938;48.652;9.292;2022-11-23T08:26:51;16.02;;;4.57;;
73642;SDS011;61938;48.652;9.292;2022-11-23T08:29:16;10.52;;;4.20;;
73642;SDS011;61938;48.652;9.292;2022-11-23T08:31:42;18.13;;;5.22;;
73642;SDS011;61938;48.652;9.292;2022-11-23T08:34:07;8.30;;;4.47;;
73642;SDS011;61938;48.652;9.292;2022-11-23T08:36:33;10.90;;;4.40;;
73642;SDS011;61938;48.652;9.292;2022-11-23T08:38:59;15.27;;;4.75;;
73642;SDS011;61938;48.652;9.292;2022-11-23T08:41:24;12.43;;;4.60;;
73642;SDS011;61938;48.652;9.292;2022-11-23T08:43:50;14.68;;;5.47;;
73642;SDS011;61938;48.652;9.292;2022-11-23T08:46:16;16.13;;;5.07;;
73642;SDS011;61938;48.652;9.292;2022-11-23T08:48:41;12.38;;;4.65;;
73642;SDS011;61938;48.652;9.292;2022-11-23T08:51:07;9.93;;;5.50;;
73642;SDS011;61938;48.652;9.292;2022-11-23T08:53:34;13.60;;;5.80;;
73642;SDS011;61938;48.652;9.292;2022-11-23T08:56:00;21.17;;;7.70;;
73642;SDS011;61938;48.652;9.292;2022-11-23T08:58:26;23.25;;;6.97;;
73642;SDS011;61938;48.652;9.292;2022-11-23T09:00:51;18.13;;;6.55;;
73642;SDS011;61938;48.652;9.292;2022-11-23T09:03:17;9.43;;;5.28;;
73642;SDS011;61938;48.652;9.292;2022-11-23T09:05:42;15.07;;;4.68;;
73642;SDS011;61938;48.652;9.292;2022-11-23T09:08:08;8.85;;;4.35;;
73642;SDS011;61938;48.652;9.292;2022-11-23T09:10:33;12.18;;;4.45;;
73642;SDS011;61938;48.652;9.292;2022-11-23T09:12:59;10.63;;;3.78;;
73642;SDS011;61938;48.652;9.292;2022-11-23T09:15:25;10.50;;;3.55;;
73642;SDS011;61938;48.652;9.292;2022-11-23T09:17:51;10.60;;;4.03;;
73642;SDS011;61938;48.652;9.292;2022-11-23T09:20:17;10.35;;;4.65;;
73642;SDS011;61938;48.652;9.292;2022-11-23T09:22:43;8.32;;;3.95;;
73642;SDS011;61938;48.652;9.292;2022-11-23T09:25:13;10.02;;;4.15;;
73642;SDS011;61938;48.652;9.292;2022-11-23T09:27:39;22.33;;;4.65;;
73642;SDS011;61938;48.652;9.292;2022-11-23T09:30:05;10.63;;;4.75;;
73642;SDS011;61938;48.652;9.292;2022-11-23T09:32:31;15.77;;;4.90;;
73642;SDS011;61938;48.652;9.292;2022-11-23T09:34:57;9.35;;;4.20;;
73642;SDS011;61938;48.652;9.292;2022-11-23T09:37:22;14.93;;;4.60;;
73642;SDS011;61938;48.652;9.292;2022-11-23T09:39:48;11.68;;;5.03;;
73642;SDS011;61938;48.652;9.292;2022-11-23T09:42:16;16.42;;;4.50;;
73642;SDS011;61938;48.652;9.292;2022-11-23T09:48:23;14.68;;;4.45;;
73642;SDS011;61938;48.652;9.292;2022-11-23T09:53:39;16.55;;;5.75;;
73642;SDS011;61938;48.652;9.292;2022-11-23T09:56:20;14.10;;;4.73;;
73642;SDS011;61938;48.652;9.292;2022-11-23T09:58:51;12.38;;;3.78;;
73642;SDS011;61938;48.652;9.292;2022-11-23T10:01:19;9.60;;;3.65;;
73642;SDS011;61938;48.652;9.292;2022-11-23T10:03:45;10.85;;;4.43;;
73642;SDS011;61938;48.652;9.292;2022-11-23T10:06:19;13.07;;;4.07;;
73642;SDS011;61938;48.652;9.292;2022-11-23T10:08:53;8.50;;;3.80;;
73642;SDS011;61938;48.652;9.292;2022-11-23T10:20:21;15.10;;;4.30;;
73642;SDS011;61938;48.652;9.292;2022-11-23T10:25:49;11.82;;;3.40;;
73642;SDS011;61938;48.652;9.292;2022-11-23T10:28:17;9.40;;;3.90;;
73642;SDS011;61938;48.652;9.292;2022-11-23T10:30:50;10.07;;;3.50;;
73642;SDS011;61938;48.652;9.292;2022-11-23T10:33:30;9.60;;;4.00;;
73642;SDS011;61938;48.652;9.292;2022-11-23T10:35:57;11.10;;;3.17;;
73642;SDS011;61938;48.652;9.292;2022-11-23T10:38:26;6.18;;;3.15;;
73642;SDS011;61938;48.652;9.292;2022-11-23T10:41:26;8.10;;;3.45;;
73642;SDS011;61938;48.652;9.292;2022-11-23T10:49:12;7.68;;;3.67;;
73642;SDS011;61938;48.652;9.292;2022-11-23T10:51:57;9.60;;;4.18;;
73642;SDS011;61938;48.652;9.292;2022-11-23T10:56:56;7.00;;;3.50;;
73642;SDS011;61938;48.652;9.292;2022-11-23T10:59:27;8.25;;;3.50;;
73642;SDS011;61938;48.652;9.292;2022-11-23T11:02:15;8.88;;;3.20;;
73642;SDS011;61938;48.652;9.292;2022-11-23T11:04:43;6.95;;;3.53;;
73642;SDS011;61938;48.652;9.292;2022-11-23T11:07:20;4.88;;;2.88;;
73642;SDS011;61938;48.652;9.292;2022-11-23T11:09:53;8.55;;;2.83;;
73642;SDS011;61938;48.652;9.292;2022-11-23T11:12:19;8.00;;;2.75;;
73642;SDS011;61938;48.652;9.292;2022-11-23T11:14:55;10.10;;;3.08;;
73642;SDS011;61938;48.652;9.292;2022-11-23T11:17:27;7.22;;;2.90;;
73642;SDS011;61938;48.652;9.292;2022-11-23T11:19:55;20.42;;;3.08;;
73642;SDS011;61938;48.652;9.292;2022-11-23T11:22:33;5.60;;;1.90;;
73642;SDS011;61938;48.652;9.292;2022-11-23T11:25:04;3.85;;;1.92;;
73642;SDS011;61938;48.652;9.292;2022-11-23T11:27:31;5.10;;;1.77;;
73642;SDS011;61938;48.652;9.292;2022-11-23T11:30:01;4.90;;;1.85;;
73642;SDS011;61938;48.652;9.292;2022-11-23T11:32:33;3.40;;;1.52;;
73642;SDS011;61938;48.652;9.292;2022-11-23T11:35:07;4.57;;;1.70;;
73642;SDS011;61938;48.652;9.292;2022-11-23T11:41:04;3.83;;;1.40;;
73642;SDS011;61938;48.652;9.292;2022-11-23T11:43:41;3.17;;;1.55;;
73642;SDS011;61938;48.652;9.292;2022-11-23T11:46:15;3.70;;;1.40;;
73642;SDS011;61938;48.652;9.292;2022-11-23T11:51:32;2.78;;;1.42;;
73642;SDS011;61938;48.652;9.292;2022-11-23T11:54:04;2.67;;;1.60;;
73642;SDS011;61938;48.652;9.292;2022-11-23T12:02:18;4.68;;;1.38;;
73642;SDS011;61938;48.652;9.292;2022-11-23T12:05:22;6.22;;;1.40;;
73642;SDS011;61938;48.652;9.292;2022-11-23T12:10:43;2.00;;;1.10;;
73642;SDS011;61938;48.652;9.292;2022-11-23T12:13:27;2.40;;;1.15;;
73642;SDS011;61938;48.652;9.292;2022-11-23T12:18:45;4.25;;;1.55;;
73642;SDS011;61938;48.652;9.292;2022-11-23T12:27:48;3.92;;;1.20;;
73642;SDS011;61938;48.652;9.292;2022-11-23T12:30:37;3.65;;;1.45;;
73642;SDS011;61938;48.652;9.292;2022-11-23T12:33:22;3.58;;;1.38;;
73642;SDS011;61938;48.652;9.292;2022-11-23T12:43:59;6.55;;;1.27;;
73642;SDS011;61938;48.652;9.292;2022-11-23T12:47:09;3.58;;;1.20;;
73642;SDS011;61938;48.652;9.292;2022-11-23T12:54:53;2.90;;;1.08;;
73642;SDS011;61938;48.652;9.292;2022-11-23T12:57:43;3.15;;;1.00;;
73642;SDS011;61938;48.652;9.292;2022-11-23T13:00:27;4.45;;;1.17;;
73642;SDS011;61938;48.652;9.292;2022-11-23T13:03:07;6.03;;;3.00;;
73642;SDS011;61938;48.652;9.292;2022-11-23T13:08:34;6.18;;;1.25;;
73642;SDS011;61938;48.652;9.292;2022-11-23T13:14:11;3.95;;;1.35;;
73642;SDS011;61938;48.652;9.292;2022-11-23T13:16:54;9.23;;;1.70;;
73642;SDS011;61938;48.652;9.292;2022-11-23T13:19:59;6.80;;;1.50;;
73642;SDS011;61938;48.652;9.292;2022-11-23T13:22:51;3.75;;;1.38;;
73642;SDS011;61938;48.652;9.292;2022-11-23T13:25:26;4.80;;;1.90;;
73642;SDS011;61938;48.652;9.292;2022-11-23T13:27:56;5.18;;;1.73;;
73642;SDS011;61938;48.652;9.292;2022-11-23T13:30:34;4.63;;;1.20;;
73642;SDS011;61938;48.652;9.292;2022-11-23T13:33:02;7.43;;;1.35;;
73642;SDS011;61938;48.652;9.292;2022-11-23T13:40:39;4.05;;;1.05;;
73642;SDS011;61938;48.652;9.292;2022-11-23T13:48:51;3.30;;;1.23;;
73642;SDS011;61938;48.652;9.292;2022-11-23T13:51:25;7.03;;;1.05;;
73642;SDS011;61938;48.652;9.292;2022-11-23T13:54:02;4.47;;;1.17;;
73642;SDS011;61938;48.652;9.292;2022-11-23T13:56:45;6.70;;;1.10;;
73642;SDS011;61938;48.652;9.292;2022-11-23T14:04:47;3.10;;;1.05;;
73642;SDS011;61938;48.652;9.292;2022-11-23T14:07:17;8.10;;;1.08;;
73642;SDS011;61938;48.652;9.292;2022-11-23T14:10:00;1.70;;;0.90;;
73642;SDS011;61938;48.652;9.292;2022-11-23T14:12:53;6.93;;;1.33;;
73642;SDS011;61938;48.652;9.292;2022-11-23T14:15:39;2.35;;;1.00;;
73642;SDS011;61938;48.652;9.292;2022-11-23T14:21:14;4.47;;;1.02;;
73642;SDS011;61938;48.652;9.292;2022-11-23T14:26:48;2.65;;;0.93;;
73642;SDS011;61938;48.652;9.292;2022-11-23T14:43:25;2.22;;;0.90;;
73642;SDS011;61938;48.652;9.292;2022-11-23T14:45:53;3.80;;;1.55;;
73642;SDS011;61938;48.652;9.292;2022-11-23T14:48:26;4.18;;;1.08;;
73642;SDS011;61938;48.652;9.292;2022-11-23T14:53:28;2.70;;;1.23;;
73642;SDS011;61938;48.652;9.292;2022-11-23T14:55:57;5.03;;;1.30;;
73642;SDS011;61938;48.652;9.292;2022-11-23T14:58:23;3.75;;;1.10;;
73642;SDS011;61938;48.652;9.292;2022-11-23T15:00:50;2.47;;;1.00;;
73642;SDS011;61938;48.652;9.292;2022-11-23T15:03:17;7.70;;;1.70;;
73642;SDS011;61938;48.652;9.292;2022-11-23T15:05:48;11.02;;;3.80;;
73642;SDS011;61938;48.652;9.292;2022-11-23T15:08:26;11.77;;;4.53;;
73642;SDS011;61938;48.652;9.292;2022-11-23T15:10:59;9.93;;;3.97;;
73642;SDS011;61938;48.652;9.292;2022-11-23T15:13:45;7.53;;;2.95;;
73642;SDS011;61938;48.652;9.292;2022-11-23T15:16:13;6.00;;;2.80;;
73642;SDS011;61938;48.652;9.292;2022-11-23T15:18:39;5.03;;;1.67;;
73642;SDS011;61938;48.652;9.292;2022-11-23T15:23:35;7.07;;;1.90;;
73642;SDS011;61938;48.652;9.292;2022-11-23T15:26:05;5.35;;;2.13;;
73642;SDS011;61938;48.652;9.292;2022-11-23T15:28:40;4.97;;;1.75;;
73642;SDS011;61938;48.652;9.292;2022-11-23T15:31:28;6.50;;;1.80;;
73642;SDS011;61938;48.652;9.292;2022-11-23T15:34:03;8.07;;;2.15;;
73642;SDS011;61938;48.652;9.292;2022-11-23T15:36:35;7.53;;;2.00;;
73642;SDS011;61938;48.652;9.292;2022-11-23T15:39:03;4.30;;;1.90;;
73642;SDS011;61938;48.652;9.292;2022-11-23T15:41:33;7.22;;;2.72;;
73642;SDS011;61938;48.652;9.292;2022-11-23T15:44:01;6.95;;;1.55;;
73642;SDS011;61938;48.652;9.292;2022-11-23T15:47:00;5.03;;;1.60;;
73642;SDS011;61938;48.652;9.292;2022-11-23T15:49:31;4.45;;;1.17;;
73642;SDS011;61938;48.652;9.292;2022-11-23T15:52:01;6.65;;;2.05;;
73642;SDS011;61938;48.652;9.292;2022-11-23T15:54:34;5.25;;;2.08;;
73642;SDS011;61938;48.652;9.292;2022-11-23T15:57:00;3.55;;;1.90;;
73642;SDS011;61938;48.652;9.292;2022-11-23T15:59:39;8.60;;;1.80;;
73642;SDS011;61938;48.652;9.292;2022-11-23T16:02:20;10.45;;;2.00;;
73642;SDS011;61938;48.652;9.292;2022-11-23T16:04:47;4.15;;;1.58;;
73642;SDS011;61938;48.652;9.292;2022-11-23T16:07:30;4.00;;;1.92;;
73642;SDS011;61938;48.652;9.292;2022-11-23T16:12:31;9.15;;;4.05;;
73642;SDS011;61938;48.652;9.292;2022-11-23T16:15:28;8.80;;;4.28;;
73642;SDS011;61938;48.652;9.292;2022-11-23T16:17:56;5.95;;;2.13;;
73642;SDS011;61938;48.652;9.292;2022-11-23T16:20:26;4.75;;;2.20;;
73642;SDS011;61938;48.652;9.292;2022-11-23T16:22:53;4.15;;;2.50;;
73642;SDS011;61938;48.652;9.292;2022-11-23T16:25:27;5.43;;;2.30;;
73642;SDS011;61938;48.652;9.292;2022-11-23T16:28:05;1.65;;;1.17;;
73642;SDS011;61938;48.652;9.292;2022-11-23T16:30:46;9.70;;;1.85;;
73642;SDS011;61938;48.652;9.292;2022-11-23T16:33:13;3.72;;;1.00;;
73642;SDS011;61938;48.652;9.292;2022-11-23T16:35:40;2.78;;;1.17;;
73642;SDS011;61938;48.652;9.292;2022-11-23T16:38:06;2.50;;;1.30;;
73642;SDS011;61938;48.652;9.292;2022-11-23T16:40:31;5.88;;;1.52;;
73642;SDS011;61938;48.652;9.292;2022-11-23T16:42:57;2.70;;;1.17;;
73642;SDS011;61938;48.652;9.292;2022-11-23T16:45:23;4.03;;;1.30;;
73642;SDS011;61938;48.652;9.292;2022-11-23T16:47:56;3.58;;;1.30;;
73642;SDS011;61938;48.652;9.292;2022-11-23T16:50:30;6.75;;;1.88;;